Methoni, Greece
Current Conditions -  °F | °C
As of 3:20 PM on Tuesday 27 Jan 2015 (Local Time) from LGKL Reporting Station
Broken Clouds Broken Clouds  
Wind Chill: 54°   Ceiling: 8000
Heat Index: 54°   Visibility: 6mi
Dew Point: 46°   Wind: 5mph
Humidity: 77%   Direction: 280°W
Pressure: 29.8"   Gusts: NA
Location:  36.82°N, 21.7°E
Report Text: LGKL 271220Z 28004KT 9999 FEW020TCU SCT030 BKN080 12/08 Q1009
Loading
Personal Weather Stations






























Interactive Weather Map New forecast layout! Learn more

10-Day Weather Forecast

Advertisements
Track Severe Weather on mobile